sensor_id;sensor_type;location;lat;lon;timestamp;P1;durP1;ratioP1;P2;durP2;ratioP2
17604;SDS011;8921;50.964;6.800;2022-08-01T00:02:23;3.57;;;1.30;;
17604;SDS011;8921;50.964;6.800;2022-08-01T00:04:53;4.97;;;1.70;;
17604;SDS011;8921;50.964;6.800;2022-08-01T00:07:20;3.00;;;1.20;;
17604;SDS011;8921;50.964;6.800;2022-08-01T00:09:48;3.87;;;2.00;;
17604;SDS011;8921;50.964;6.800;2022-08-01T00:12:17;4.73;;;1.60;;
17604;SDS011;8921;50.964;6.800;2022-08-01T00:14:45;3.50;;;1.60;;
17604;SDS011;8921;50.964;6.800;2022-08-01T00:17:13;3.93;;;2.00;;
17604;SDS011;8921;50.964;6.800;2022-08-01T00:19:41;3.63;;;1.90;;
17604;SDS011;8921;50.964;6.800;2022-08-01T00:22:10;3.50;;;1.80;;
17604;SDS011;8921;50.964;6.800;2022-08-01T00:24:38;6.63;;;1.87;;
17604;SDS011;8921;50.964;6.800;2022-08-01T00:27:06;4.03;;;1.90;;
17604;SDS011;8921;50.964;6.800;2022-08-01T00:29:34;4.00;;;1.60;;
17604;SDS011;8921;50.964;6.800;2022-08-01T00:32:03;3.50;;;1.53;;
17604;SDS011;8921;50.964;6.800;2022-08-01T00:34:31;6.90;;;2.10;;
17604;SDS011;8921;50.964;6.800;2022-08-01T00:36:59;4.63;;;2.50;;
17604;SDS011;8921;50.964;6.800;2022-08-01T00:39:28;6.40;;;2.17;;
17604;SDS011;8921;50.964;6.800;2022-08-01T00:41:56;6.93;;;2.30;;
17604;SDS011;8921;50.964;6.800;2022-08-01T00:44:24;4.83;;;2.03;;
17604;SDS011;8921;50.964;6.800;2022-08-01T00:46:53;5.27;;;2.17;;
17604;SDS011;8921;50.964;6.800;2022-08-01T00:49:21;5.37;;;2.27;;
17604;SDS011;8921;50.964;6.800;2022-08-01T00:51:49;5.57;;;1.93;;
17604;SDS011;8921;50.964;6.800;2022-08-01T00:54:17;5.17;;;1.80;;
17604;SDS011;8921;50.964;6.800;2022-08-01T00:56:46;3.57;;;1.67;;
17604;SDS011;8921;50.964;6.800;2022-08-01T00:59:14;4.23;;;2.03;;
17604;SDS011;8921;50.964;6.800;2022-08-01T01:01:42;4.90;;;2.40;;
17604;SDS011;8921;50.964;6.800;2022-08-01T01:04:10;4.73;;;2.60;;
17604;SDS011;8921;50.964;6.800;2022-08-01T01:06:44;5.60;;;2.30;;
17604;SDS011;8921;50.964;6.800;2022-08-01T01:14:43;5.93;;;4.03;;
17604;SDS011;8921;50.964;6.800;2022-08-01T01:17:07;7.23;;;2.20;;
17604;SDS011;8921;50.964;6.800;2022-08-01T01:19:38;4.43;;;2.00;;
17604;SDS011;8921;50.964;6.800;2022-08-01T01:24:40;6.20;;;2.53;;
17604;SDS011;8921;50.964;6.800;2022-08-01T01:27:09;4.83;;;2.13;;
17604;SDS011;8921;50.964;6.800;2022-08-01T01:29:35;5.50;;;2.23;;
17604;SDS011;8921;50.964;6.800;2022-08-01T01:34:43;4.83;;;2.30;;
17604;SDS011;8921;50.964;6.800;2022-08-01T01:37:12;4.20;;;2.30;;
17604;SDS011;8921;50.964;6.800;2022-08-01T01:39:42;9.80;;;2.50;;
17604;SDS011;8921;50.964;6.800;2022-08-01T01:42:10;4.77;;;2.23;;
17604;SDS011;8921;50.964;6.800;2022-08-01T01:44:39;5.00;;;2.20;;
17604;SDS011;8921;50.964;6.800;2022-08-01T01:47:07;4.37;;;2.03;;
17604;SDS011;8921;50.964;6.800;2022-08-01T01:49:35;6.30;;;2.40;;
17604;SDS011;8921;50.964;6.800;2022-08-01T01:52:04;7.93;;;2.53;;
17604;SDS011;8921;50.964;6.800;2022-08-01T01:54:33;6.10;;;2.37;;
17604;SDS011;8921;50.964;6.800;2022-08-01T01:57:03;5.90;;;2.13;;
17604;SDS011;8921;50.964;6.800;2022-08-01T01:59:32;6.60;;;2.53;;
17604;SDS011;8921;50.964;6.800;2022-08-01T02:02:01;8.50;;;2.30;;
17604;SDS011;8921;50.964;6.800;2022-08-01T02:04:28;3.57;;;1.77;;
17604;SDS011;8921;50.964;6.800;2022-08-01T02:06:56;4.83;;;1.90;;
17604;SDS011;8921;50.964;6.800;2022-08-01T02:09:24;5.73;;;2.67;;
17604;SDS011;8921;50.964;6.800;2022-08-01T02:11:53;4.10;;;1.80;;
17604;SDS011;8921;50.964;6.800;2022-08-01T02:14:21;7.27;;;1.90;;
17604;SDS011;8921;50.964;6.800;2022-08-01T02:16:50;6.00;;;2.10;;
17604;SDS011;8921;50.964;6.800;2022-08-01T02:19:18;4.37;;;2.00;;
17604;SDS011;8921;50.964;6.800;2022-08-01T02:21:49;5.87;;;2.60;;
17604;SDS011;8921;50.964;6.800;2022-08-01T02:26:57;4.10;;;2.23;;
17604;SDS011;8921;50.964;6.800;2022-08-01T02:31:56;4.33;;;2.13;;
17604;SDS011;8921;50.964;6.800;2022-08-01T02:34:24;5.23;;;2.00;;
17604;SDS011;8921;50.964;6.800;2022-08-01T02:36:52;8.63;;;2.20;;
17604;SDS011;8921;50.964;6.800;2022-08-01T02:39:21;6.90;;;2.07;;
17604;SDS011;8921;50.964;6.800;2022-08-01T02:41:50;4.10;;;2.20;;
17604;SDS011;8921;50.964;6.800;2022-08-01T02:44:24;6.47;;;2.40;;
17604;SDS011;8921;50.964;6.800;2022-08-01T02:46:52;9.57;;;2.77;;
17604;SDS011;8921;50.964;6.800;2022-08-01T02:49:20;6.03;;;2.33;;
17604;SDS011;8921;50.964;6.800;2022-08-01T02:51:48;4.33;;;1.97;;
17604;SDS011;8921;50.964;6.800;2022-08-01T02:54:17;4.00;;;1.93;;
17604;SDS011;8921;50.964;6.800;2022-08-01T02:56:44;4.67;;;1.80;;
17604;SDS011;8921;50.964;6.800;2022-08-01T02:59:13;4.10;;;2.40;;
17604;SDS011;8921;50.964;6.800;2022-08-01T03:01:42;5.43;;;2.53;;
17604;SDS011;8921;50.964;6.800;2022-08-01T03:04:09;4.63;;;2.20;;
17604;SDS011;8921;50.964;6.800;2022-08-01T03:06:38;7.43;;;2.73;;
17604;SDS011;8921;50.964;6.800;2022-08-01T03:09:06;4.37;;;2.13;;
17604;SDS011;8921;50.964;6.800;2022-08-01T03:11:34;4.40;;;2.07;;
17604;SDS011;8921;50.964;6.800;2022-08-01T03:14:04;5.83;;;2.43;;
17604;SDS011;8921;50.964;6.800;2022-08-01T03:16:31;6.77;;;2.80;;
17604;SDS011;8921;50.964;6.800;2022-08-01T03:18:59;5.63;;;2.00;;
17604;SDS011;8921;50.964;6.800;2022-08-01T03:21:27;6.27;;;2.90;;
17604;SDS011;8921;50.964;6.800;2022-08-01T03:23:56;9.20;;;2.27;;
17604;SDS011;8921;50.964;6.800;2022-08-01T03:26:25;11.83;;;2.77;;
17604;SDS011;8921;50.964;6.800;2022-08-01T03:28:52;7.37;;;3.07;;
17604;SDS011;8921;50.964;6.800;2022-08-01T03:31:20;7.07;;;2.80;;
17604;SDS011;8921;50.964;6.800;2022-08-01T03:33:48;5.03;;;2.67;;
17604;SDS011;8921;50.964;6.800;2022-08-01T03:36:17;4.97;;;2.80;;
17604;SDS011;8921;50.964;6.800;2022-08-01T03:38:45;5.50;;;2.53;;
17604;SDS011;8921;50.964;6.800;2022-08-01T03:41:15;6.53;;;2.47;;
17604;SDS011;8921;50.964;6.800;2022-08-01T03:43:45;6.33;;;2.73;;
17604;SDS011;8921;50.964;6.800;2022-08-01T03:46:20;7.07;;;3.40;;
17604;SDS011;8921;50.964;6.800;2022-08-01T03:48:47;5.47;;;3.10;;
17604;SDS011;8921;50.964;6.800;2022-08-01T03:51:15;6.67;;;3.03;;
17604;SDS011;8921;50.964;6.800;2022-08-01T03:53:43;7.47;;;3.63;;
17604;SDS011;8921;50.964;6.800;2022-08-01T03:56:12;15.53;;;3.83;;
17604;SDS011;8921;50.964;6.800;2022-08-01T03:58:40;8.47;;;4.87;;
17604;SDS011;8921;50.964;6.800;2022-08-01T04:01:08;7.93;;;3.80;;
17604;SDS011;8921;50.964;6.800;2022-08-01T04:03:37;6.77;;;3.57;;
17604;SDS011;8921;50.964;6.800;2022-08-01T04:06:05;4.50;;;2.83;;
17604;SDS011;8921;50.964;6.800;2022-08-01T04:08:34;8.67;;;3.10;;
17604;SDS011;8921;50.964;6.800;2022-08-01T04:11:01;6.33;;;3.40;;
17604;SDS011;8921;50.964;6.800;2022-08-01T04:13:30;5.10;;;3.20;;
17604;SDS011;8921;50.964;6.800;2022-08-01T04:15:58;6.83;;;3.57;;
17604;SDS011;8921;50.964;6.800;2022-08-01T04:18:26;6.53;;;3.10;;
17604;SDS011;8921;50.964;6.800;2022-08-01T04:20:55;8.70;;;3.57;;
17604;SDS011;8921;50.964;6.800;2022-08-01T04:23:23;10.27;;;3.60;;
17604;SDS011;8921;50.964;6.800;2022-08-01T04:25:51;10.10;;;3.80;;
17604;SDS011;8921;50.964;6.800;2022-08-01T04:28:19;7.43;;;3.67;;
17604;SDS011;8921;50.964;6.800;2022-08-01T04:30:48;8.57;;;4.13;;
17604;SDS011;8921;50.964;6.800;2022-08-01T04:33:16;8.23;;;3.80;;
17604;SDS011;8921;50.964;6.800;2022-08-01T04:35:44;7.90;;;3.47;;
17604;SDS011;8921;50.964;6.800;2022-08-01T04:38:14;7.33;;;3.83;;
17604;SDS011;8921;50.964;6.800;2022-08-01T04:40:41;10.10;;;6.00;;
17604;SDS011;8921;50.964;6.800;2022-08-01T04:43:09;7.33;;;3.60;;
17604;SDS011;8921;50.964;6.800;2022-08-01T04:45:37;13.10;;;6.63;;
17604;SDS011;8921;50.964;6.800;2022-08-01T04:48:06;7.30;;;4.23;;
17604;SDS011;8921;50.964;6.800;2022-08-01T04:50:34;9.23;;;5.30;;
17604;SDS011;8921;50.964;6.800;2022-08-01T04:53:02;8.40;;;4.10;;
17604;SDS011;8921;50.964;6.800;2022-08-01T04:55:30;6.87;;;3.60;;
17604;SDS011;8921;50.964;6.800;2022-08-01T04:57:59;8.93;;;3.40;;
17604;SDS011;8921;50.964;6.800;2022-08-01T05:00:27;10.90;;;5.37;;
17604;SDS011;8921;50.964;6.800;2022-08-01T05:02:55;9.97;;;3.90;;
17604;SDS011;8921;50.964;6.800;2022-08-01T05:05:23;6.23;;;4.30;;
17604;SDS011;8921;50.964;6.800;2022-08-01T05:07:52;9.53;;;4.67;;
17604;SDS011;8921;50.964;6.800;2022-08-01T05:10:20;10.80;;;4.97;;
17604;SDS011;8921;50.964;6.800;2022-08-01T05:12:48;13.30;;;5.57;;
17604;SDS011;8921;50.964;6.800;2022-08-01T05:15:17;11.67;;;5.60;;
17604;SDS011;8921;50.964;6.800;2022-08-01T05:17:45;13.63;;;5.30;;
17604;SDS011;8921;50.964;6.800;2022-08-01T05:22:44;14.73;;;6.07;;
17604;SDS011;8921;50.964;6.800;2022-08-01T05:25:12;10.93;;;6.80;;
17604;SDS011;8921;50.964;6.800;2022-08-01T05:27:41;14.73;;;5.40;;
17604;SDS011;8921;50.964;6.800;2022-08-01T05:30:09;10.47;;;6.93;;
17604;SDS011;8921;50.964;6.800;2022-08-01T05:32:37;8.90;;;5.93;;
17604;SDS011;8921;50.964;6.800;2022-08-01T05:35:06;9.10;;;5.80;;
17604;SDS011;8921;50.964;6.800;2022-08-01T05:37:34;11.77;;;6.47;;
17604;SDS011;8921;50.964;6.800;2022-08-01T05:40:03;11.37;;;6.90;;
17604;SDS011;8921;50.964;6.800;2022-08-01T05:42:31;11.73;;;6.33;;
17604;SDS011;8921;50.964;6.800;2022-08-01T05:44:59;11.33;;;5.30;;
17604;SDS011;8921;50.964;6.800;2022-08-01T05:47:28;8.80;;;5.30;;
17604;SDS011;8921;50.964;6.800;2022-08-01T05:49:56;10.57;;;6.80;;
17604;SDS011;8921;50.964;6.800;2022-08-01T05:52:24;16.33;;;7.30;;
17604;SDS011;8921;50.964;6.800;2022-08-01T05:54:52;12.43;;;6.30;;
17604;SDS011;8921;50.964;6.800;2022-08-01T05:57:21;17.63;;;6.90;;
17604;SDS011;8921;50.964;6.800;2022-08-01T05:59:49;12.13;;;5.97;;
17604;SDS011;8921;50.964;6.800;2022-08-01T06:02:17;11.13;;;6.73;;
17604;SDS011;8921;50.964;6.800;2022-08-01T06:04:45;12.27;;;7.00;;
17604;SDS011;8921;50.964;6.800;2022-08-01T06:07:14;13.63;;;6.93;;
17604;SDS011;8921;50.964;6.800;2022-08-01T06:09:42;13.50;;;7.43;;
17604;SDS011;8921;50.964;6.800;2022-08-01T06:12:10;12.13;;;6.33;;
17604;SDS011;8921;50.964;6.800;2022-08-01T06:14:39;12.83;;;7.43;;
17604;SDS011;8921;50.964;6.800;2022-08-01T06:17:08;14.27;;;7.17;;
17604;SDS011;8921;50.964;6.800;2022-08-01T06:19:36;11.80;;;6.20;;
17604;SDS011;8921;50.964;6.800;2022-08-01T06:22:05;11.27;;;6.43;;
17604;SDS011;8921;50.964;6.800;2022-08-01T06:24:33;12.17;;;5.83;;
17604;SDS011;8921;50.964;6.800;2022-08-01T06:27:01;14.97;;;6.67;;
17604;SDS011;8921;50.964;6.800;2022-08-01T06:29:30;11.03;;;7.37;;
17604;SDS011;8921;50.964;6.800;2022-08-01T06:31:58;14.33;;;7.03;;
17604;SDS011;8921;50.964;6.800;2022-08-01T06:34:26;20.43;;;7.10;;
17604;SDS011;8921;50.964;6.800;2022-08-01T06:36:54;11.30;;;6.57;;
17604;SDS011;8921;50.964;6.800;2022-08-01T06:39:22;14.13;;;6.37;;
17604;SDS011;8921;50.964;6.800;2022-08-01T06:41:51;13.03;;;7.70;;
17604;SDS011;8921;50.964;6.800;2022-08-01T06:44:19;13.80;;;9.40;;
17604;SDS011;8921;50.964;6.800;2022-08-01T06:46:47;18.77;;;7.47;;
17604;SDS011;8921;50.964;6.800;2022-08-01T06:49:16;16.17;;;8.83;;
17604;SDS011;8921;50.964;6.800;2022-08-01T06:51:44;11.67;;;7.63;;
17604;SDS011;8921;50.964;6.800;2022-08-01T06:54:12;17.33;;;6.77;;
17604;SDS011;8921;50.964;6.800;2022-08-01T06:56:40;9.47;;;6.77;;
17604;SDS011;8921;50.964;6.800;2022-08-01T06:59:09;12.10;;;7.93;;
17604;SDS011;8921;50.964;6.800;2022-08-01T07:01:37;10.73;;;6.70;;
17604;SDS011;8921;50.964;6.800;2022-08-01T07:04:05;12.73;;;6.83;;
17604;SDS011;8921;50.964;6.800;2022-08-01T07:06:34;12.90;;;7.30;;
17604;SDS011;8921;50.964;6.800;2022-08-01T07:09:02;12.20;;;7.90;;
17604;SDS011;8921;50.964;6.800;2022-08-01T07:11:31;15.53;;;8.20;;
17604;SDS011;8921;50.964;6.800;2022-08-01T07:13:59;11.67;;;7.13;;
17604;SDS011;8921;50.964;6.800;2022-08-01T07:16:27;10.40;;;7.07;;
17604;SDS011;8921;50.964;6.800;2022-08-01T07:18:55;15.60;;;7.53;;
17604;SDS011;8921;50.964;6.800;2022-08-01T07:21:24;13.10;;;8.10;;
17604;SDS011;8921;50.964;6.800;2022-08-01T07:23:52;13.23;;;8.20;;
17604;SDS011;8921;50.964;6.800;2022-08-01T07:26:20;16.50;;;7.57;;
17604;SDS011;8921;50.964;6.800;2022-08-01T07:28:48;8.97;;;6.03;;
17604;SDS011;8921;50.964;6.800;2022-08-01T07:31:17;12.27;;;7.50;;
17604;SDS011;8921;50.964;6.800;2022-08-01T07:33:45;12.97;;;7.43;;
17604;SDS011;8921;50.964;6.800;2022-08-01T07:36:13;12.40;;;7.43;;
17604;SDS011;8921;50.964;6.800;2022-08-01T07:38:42;10.00;;;7.53;;
17604;SDS011;8921;50.964;6.800;2022-08-01T07:41:10;13.07;;;7.63;;
17604;SDS011;8921;50.964;6.800;2022-08-01T07:43:38;8.40;;;6.10;;
17604;SDS011;8921;50.964;6.800;2022-08-01T07:46:06;9.10;;;5.90;;
17604;SDS011;8921;50.964;6.800;2022-08-01T07:48:35;11.43;;;5.83;;
17604;SDS011;8921;50.964;6.800;2022-08-01T07:51:03;10.60;;;7.33;;
17604;SDS011;8921;50.964;6.800;2022-08-01T07:53:31;16.87;;;8.27;;
17604;SDS011;8921;50.964;6.800;2022-08-01T07:56:00;9.90;;;6.70;;
17604;SDS011;8921;50.964;6.800;2022-08-01T07:58:28;11.77;;;7.73;;
17604;SDS011;8921;50.964;6.800;2022-08-01T08:00:56;11.37;;;7.90;;
17604;SDS011;8921;50.964;6.800;2022-08-01T08:03:24;17.00;;;9.10;;
17604;SDS011;8921;50.964;6.800;2022-08-01T08:05:53;11.33;;;7.40;;
17604;SDS011;8921;50.964;6.800;2022-08-01T08:08:21;14.10;;;6.83;;
17604;SDS011;8921;50.964;6.800;2022-08-01T08:10:49;12.20;;;8.23;;
17604;SDS011;8921;50.964;6.800;2022-08-01T08:13:17;10.83;;;7.63;;
17604;SDS011;8921;50.964;6.800;2022-08-01T08:15:46;10.70;;;7.17;;
17604;SDS011;8921;50.964;6.800;2022-08-01T08:18:14;12.27;;;6.07;;
17604;SDS011;8921;50.964;6.800;2022-08-01T08:20:43;10.87;;;5.97;;
17604;SDS011;8921;50.964;6.800;2022-08-01T08:23:10;15.67;;;7.27;;
17604;SDS011;8921;50.964;6.800;2022-08-01T08:25:57;9.67;;;6.40;;
17604;SDS011;8921;50.964;6.800;2022-08-01T08:28:26;10.47;;;6.13;;
17604;SDS011;8921;50.964;6.800;2022-08-01T08:30:54;8.73;;;5.80;;
17604;SDS011;8921;50.964;6.800;2022-08-01T08:33:22;9.03;;;5.77;;
17604;SDS011;8921;50.964;6.800;2022-08-01T08:35:50;10.40;;;5.77;;
17604;SDS011;8921;50.964;6.800;2022-08-01T08:38:19;12.37;;;6.33;;
17604;SDS011;8921;50.964;6.800;2022-08-01T08:40:47;11.37;;;6.07;;
17604;SDS011;8921;50.964;6.800;2022-08-01T08:43:15;8.50;;;5.70;;
17604;SDS011;8921;50.964;6.800;2022-08-01T08:45:44;8.47;;;6.00;;
17604;SDS011;8921;50.964;6.800;2022-08-01T08:48:12;19.17;;;6.37;;
17604;SDS011;8921;50.964;6.800;2022-08-01T08:50:41;7.83;;;5.70;;
17604;SDS011;8921;50.964;6.800;2022-08-01T08:53:09;10.50;;;6.00;;
17604;SDS011;8921;50.964;6.800;2022-08-01T08:55:37;9.23;;;6.10;;
17604;SDS011;8921;50.964;6.800;2022-08-01T08:58:05;15.13;;;6.87;;
17604;SDS011;8921;50.964;6.800;2022-08-01T09:00:33;19.30;;;9.47;;
17604;SDS011;8921;50.964;6.800;2022-08-01T09:03:01;14.77;;;7.90;;
17604;SDS011;8921;50.964;6.800;2022-08-01T09:05:30;11.77;;;7.00;;
17604;SDS011;8921;50.964;6.800;2022-08-01T09:07:58;10.90;;;7.40;;
17604;SDS011;8921;50.964;6.800;2022-08-01T09:10:26;11.53;;;6.80;;
17604;SDS011;8921;50.964;6.800;2022-08-01T09:13:08;10.93;;;7.37;;
17604;SDS011;8921;50.964;6.800;2022-08-01T09:15:48;10.43;;;7.30;;
17604;SDS011;8921;50.964;6.800;2022-08-01T09:18:37;14.33;;;8.77;;
17604;SDS011;8921;50.964;6.800;2022-08-01T09:23:46;9.93;;;6.10;;
17604;SDS011;8921;50.964;6.800;2022-08-01T09:26:20;9.60;;;5.97;;
17604;SDS011;8921;50.964;6.800;2022-08-01T09:28:47;7.90;;;5.57;;
17604;SDS011;8921;50.964;6.800;2022-08-01T09:31:16;9.73;;;6.47;;
17604;SDS011;8921;50.964;6.800;2022-08-01T09:33:54;7.17;;;5.43;;
17604;SDS011;8921;50.964;6.800;2022-08-01T09:36:24;12.07;;;6.30;;
17604;SDS011;8921;50.964;6.800;2022-08-01T09:38:53;8.20;;;5.57;;
17604;SDS011;8921;50.964;6.800;2022-08-01T09:41:28;9.57;;;6.10;;
17604;SDS011;8921;50.964;6.800;2022-08-01T09:43:52;9.27;;;5.00;;
17604;SDS011;8921;50.964;6.800;2022-08-01T09:46:20;16.73;;;6.37;;
17604;SDS011;8921;50.964;6.800;2022-08-01T09:49:04;7.97;;;6.00;;
17604;SDS011;8921;50.964;6.800;2022-08-01T09:51:35;11.23;;;5.90;;
17604;SDS011;8921;50.964;6.800;2022-08-01T09:54:03;9.20;;;6.00;;
17604;SDS011;8921;50.964;6.800;2022-08-01T09:56:38;9.53;;;5.90;;
17604;SDS011;8921;50.964;6.800;2022-08-01T09:59:05;8.00;;;5.60;;
17604;SDS011;8921;50.964;6.800;2022-08-01T10:02:07;7.43;;;5.43;;
17604;SDS011;8921;50.964;6.800;2022-08-01T10:04:17;8.20;;;5.70;;
17604;SDS011;8921;50.964;6.800;2022-08-01T10:06:49;7.20;;;4.77;;
17604;SDS011;8921;50.964;6.800;2022-08-01T10:09:18;10.03;;;5.80;;
17604;SDS011;8921;50.964;6.800;2022-08-01T10:11:44;22.47;;;6.27;;
17604;SDS011;8921;50.964;6.800;2022-08-01T10:14:12;8.27;;;5.60;;
17604;SDS011;8921;50.964;6.800;2022-08-01T10:16:40;10.47;;;5.80;;
17604;SDS011;8921;50.964;6.800;2022-08-01T10:19:09;9.70;;;5.67;;
17604;SDS011;8921;50.964;6.800;2022-08-01T10:21:37;8.50;;;5.70;;
17604;SDS011;8921;50.964;6.800;2022-08-01T10:24:05;11.17;;;5.07;;
17604;SDS011;8921;50.964;6.800;2022-08-01T10:26:33;7.13;;;5.13;;
17604;SDS011;8921;50.964;6.800;2022-08-01T10:29:02;8.27;;;4.53;;
17604;SDS011;8921;50.964;6.800;2022-08-01T10:31:30;10.47;;;5.53;;
17604;SDS011;8921;50.964;6.800;2022-08-01T10:33:59;7.10;;;4.47;;
17604;SDS011;8921;50.964;6.800;2022-08-01T10:36:27;10.00;;;5.50;;
17604;SDS011;8921;50.964;6.800;2022-08-01T10:38:55;7.40;;;4.80;;
17604;SDS011;8921;50.964;6.800;2022-08-01T10:41:23;7.20;;;4.70;;
17604;SDS011;8921;50.964;6.800;2022-08-01T10:43:52;8.73;;;5.30;;
17604;SDS011;8921;50.964;6.800;2022-08-01T10:46:20;9.77;;;5.70;;
17604;SDS011;8921;50.964;6.800;2022-08-01T10:48:55;7.37;;;4.87;;
17604;SDS011;8921;50.964;6.800;2022-08-01T10:51:19;5.83;;;4.20;;
17604;SDS011;8921;50.964;6.800;2022-08-01T10:53:49;7.07;;;4.70;;
17604;SDS011;8921;50.964;6.800;2022-08-01T10:56:15;8.87;;;4.30;;
17604;SDS011;8921;50.964;6.800;2022-08-01T10:58:44;6.07;;;3.73;;
17604;SDS011;8921;50.964;6.800;2022-08-01T11:04:02;7.27;;;4.70;;
17604;SDS011;8921;50.964;6.800;2022-08-01T11:09:02;8.83;;;3.50;;
17604;SDS011;8921;50.964;6.800;2022-08-01T11:11:29;5.60;;;3.93;;
17604;SDS011;8921;50.964;6.800;2022-08-01T11:14:00;7.27;;;3.73;;
17604;SDS011;8921;50.964;6.800;2022-08-01T11:16:28;12.43;;;4.27;;
17604;SDS011;8921;50.964;6.800;2022-08-01T11:18:56;8.67;;;4.10;;
17604;SDS011;8921;50.964;6.800;2022-08-01T11:27:23;7.70;;;4.80;;
17604;SDS011;8921;50.964;6.800;2022-08-01T11:32:46;7.90;;;3.40;;
17604;SDS011;8921;50.964;6.800;2022-08-01T11:35:14;4.70;;;2.83;;
17604;SDS011;8921;50.964;6.800;2022-08-01T11:37:42;7.10;;;4.30;;
17604;SDS011;8921;50.964;6.800;2022-08-01T11:40:14;4.77;;;2.83;;
17604;SDS011;8921;50.964;6.800;2022-08-01T11:45:47;8.77;;;3.70;;
17604;SDS011;8921;50.964;6.800;2022-08-01T11:48:18;6.00;;;3.40;;
17604;SDS011;8921;50.964;6.800;2022-08-01T11:50:45;7.97;;;3.80;;
17604;SDS011;8921;50.964;6.800;2022-08-01T11:53:14;6.57;;;3.80;;
17604;SDS011;8921;50.964;6.800;2022-08-01T11:55:49;6.27;;;3.50;;
17604;SDS011;8921;50.964;6.800;2022-08-01T11:58:20;9.00;;;4.27;;
17604;SDS011;8921;50.964;6.800;2022-08-01T12:00:49;7.83;;;3.37;;
17604;SDS011;8921;50.964;6.800;2022-08-01T12:03:12;14.20;;;4.43;;
17604;SDS011;8921;50.964;6.800;2022-08-01T12:05:43;12.00;;;3.37;;
17604;SDS011;8921;50.964;6.800;2022-08-01T12:08:09;5.73;;;3.07;;
17604;SDS011;8921;50.964;6.800;2022-08-01T12:10:37;8.80;;;3.47;;
17604;SDS011;8921;50.964;6.800;2022-08-01T12:13:06;5.70;;;3.27;;
17604;SDS011;8921;50.964;6.800;2022-08-01T12:15:34;5.43;;;3.33;;
17604;SDS011;8921;50.964;6.800;2022-08-01T12:18:03;12.50;;;3.90;;
17604;SDS011;8921;50.964;6.800;2022-08-01T12:20:34;5.87;;;3.60;;
17604;SDS011;8921;50.964;6.800;2022-08-01T12:23:02;10.40;;;4.20;;
17604;SDS011;8921;50.964;6.800;2022-08-01T12:25:36;7.10;;;3.70;;
17604;SDS011;8921;50.964;6.800;2022-08-01T12:28:04;8.33;;;3.67;;
17604;SDS011;8921;50.964;6.800;2022-08-01T12:30:33;6.63;;;3.80;;
17604;SDS011;8921;50.964;6.800;2022-08-01T12:33:04;10.70;;;4.27;;
17604;SDS011;8921;50.964;6.800;2022-08-01T12:35:32;6.40;;;3.40;;
17604;SDS011;8921;50.964;6.800;2022-08-01T12:38:01;7.00;;;3.10;;
17604;SDS011;8921;50.964;6.800;2022-08-01T12:40:40;5.00;;;3.10;;
17604;SDS011;8921;50.964;6.800;2022-08-01T12:43:06;7.33;;;3.70;;
17604;SDS011;8921;50.964;6.800;2022-08-01T12:45:37;7.43;;;3.83;;
17604;SDS011;8921;50.964;6.800;2022-08-01T12:48:08;5.70;;;3.40;;
17604;SDS011;8921;50.964;6.800;2022-08-01T12:50:45;6.13;;;3.13;;
17604;SDS011;8921;50.964;6.800;2022-08-01T12:53:13;5.63;;;2.90;;
17604;SDS011;8921;50.964;6.800;2022-08-01T12:55:44;7.37;;;2.67;;
17604;SDS011;8921;50.964;6.800;2022-08-01T12:58:13;5.70;;;2.57;;
17604;SDS011;8921;50.964;6.800;2022-08-01T13:00:41;5.80;;;2.93;;
17604;SDS011;8921;50.964;6.800;2022-08-01T13:03:09;4.73;;;2.10;;
17604;SDS011;8921;50.964;6.800;2022-08-01T13:05:43;3.40;;;1.80;;
17604;SDS011;8921;50.964;6.800;2022-08-01T13:08:24;4.67;;;2.10;;
17604;SDS011;8921;50.964;6.800;2022-08-01T13:11:00;4.50;;;2.30;;
17604;SDS011;8921;50.964;6.800;2022-08-01T13:13:19;5.07;;;2.17;;
17604;SDS011;8921;50.964;6.800;2022-08-01T13:15:48;4.87;;;2.40;;
17604;SDS011;8921;50.964;6.800;2022-08-01T13:18:23;4.50;;;2.47;;
17604;SDS011;8921;50.964;6.800;2022-08-01T13:20:50;3.70;;;2.03;;
17604;SDS011;8921;50.964;6.800;2022-08-01T13:23:19;4.50;;;2.20;;
17604;SDS011;8921;50.964;6.800;2022-08-01T13:25:50;5.33;;;2.10;;
17604;SDS011;8921;50.964;6.800;2022-08-01T13:28:18;3.90;;;1.70;;
17604;SDS011;8921;50.964;6.800;2022-08-01T13:33:20;5.70;;;2.00;;
17604;SDS011;8921;50.964;6.800;2022-08-01T13:35:56;3.17;;;1.50;;
17604;SDS011;8921;50.964;6.800;2022-08-01T13:38:23;4.63;;;1.90;;
17604;SDS011;8921;50.964;6.800;2022-08-01T13:41:09;4.00;;;2.00;;
17604;SDS011;8921;50.964;6.800;2022-08-01T13:43:38;4.57;;;1.60;;
17604;SDS011;8921;50.964;6.800;2022-08-01T13:46:06;6.30;;;1.90;;
17604;SDS011;8921;50.964;6.800;2022-08-01T13:48:34;6.07;;;2.10;;
17604;SDS011;8921;50.964;6.800;2022-08-01T13:51:03;4.77;;;1.93;;
17604;SDS011;8921;50.964;6.800;2022-08-01T13:53:31;5.10;;;1.73;;
17604;SDS011;8921;50.964;6.800;2022-08-01T13:55:59;3.60;;;1.70;;
17604;SDS011;8921;50.964;6.800;2022-08-01T13:58:27;5.30;;;1.90;;
17604;SDS011;8921;50.964;6.800;2022-08-01T14:00:56;11.10;;;2.00;;
17604;SDS011;8921;50.964;6.800;2022-08-01T14:03:24;3.50;;;2.00;;
17604;SDS011;8921;50.964;6.800;2022-08-01T14:05:52;3.77;;;2.00;;
17604;SDS011;8921;50.964;6.800;2022-08-01T14:08:21;5.80;;;2.17;;
17604;SDS011;8921;50.964;6.800;2022-08-01T14:10:49;4.60;;;2.03;;
17604;SDS011;8921;50.964;6.800;2022-08-01T14:13:17;4.30;;;1.73;;
17604;SDS011;8921;50.964;6.800;2022-08-01T14:15:45;4.40;;;1.80;;
17604;SDS011;8921;50.964;6.800;2022-08-01T14:18:14;3.70;;;1.80;;
17604;SDS011;8921;50.964;6.800;2022-08-01T14:20:42;5.03;;;1.63;;
17604;SDS011;8921;50.964;6.800;2022-08-01T14:23:10;3.60;;;1.70;;
17604;SDS011;8921;50.964;6.800;2022-08-01T14:25:39;3.50;;;1.53;;
17604;SDS011;8921;50.964;6.800;2022-08-01T14:28:07;4.93;;;1.63;;
17604;SDS011;8921;50.964;6.800;2022-08-01T14:30:35;5.50;;;2.10;;
17604;SDS011;8921;50.964;6.800;2022-08-01T14:33:03;4.47;;;1.77;;
17604;SDS011;8921;50.964;6.800;2022-08-01T14:35:31;7.00;;;2.00;;
17604;SDS011;8921;50.964;6.800;2022-08-01T14:38:00;4.67;;;1.97;;
17604;SDS011;8921;50.964;6.800;2022-08-01T14:40:28;4.17;;;2.00;;
17604;SDS011;8921;50.964;6.800;2022-08-01T14:42:56;4.53;;;1.80;;
17604;SDS011;8921;50.964;6.800;2022-08-01T14:45:25;4.43;;;1.70;;
17604;SDS011;8921;50.964;6.800;2022-08-01T14:47:53;4.30;;;2.20;;
17604;SDS011;8921;50.964;6.800;2022-08-01T14:50:21;3.67;;;1.87;;
17604;SDS011;8921;50.964;6.800;2022-08-01T14:52:49;3.70;;;2.00;;
17604;SDS011;8921;50.964;6.800;2022-08-01T14:55:18;6.23;;;2.10;;
17604;SDS011;8921;50.964;6.800;2022-08-01T14:57:46;8.23;;;2.40;;
17604;SDS011;8921;50.964;6.800;2022-08-01T15:00:15;5.30;;;2.10;;
17604;SDS011;8921;50.964;6.800;2022-08-01T15:02:43;4.60;;;2.07;;
17604;SDS011;8921;50.964;6.800;2022-08-01T15:05:11;4.00;;;2.57;;
17604;SDS011;8921;50.964;6.800;2022-08-01T15:07:39;4.00;;;2.30;;
17604;SDS011;8921;50.964;6.800;2022-08-01T15:10:07;3.93;;;2.10;;
17604;SDS011;8921;50.964;6.800;2022-08-01T15:12:36;8.30;;;3.60;;
17604;SDS011;8921;50.964;6.800;2022-08-01T15:15:04;4.00;;;2.30;;
17604;SDS011;8921;50.964;6.800;2022-08-01T15:17:33;3.90;;;2.17;;
17604;SDS011;8921;50.964;6.800;2022-08-01T15:20:02;5.70;;;2.37;;
17604;SDS011;8921;50.964;6.800;2022-08-01T15:22:29;4.30;;;1.83;;
17604;SDS011;8921;50.964;6.800;2022-08-01T15:24:58;5.53;;;2.50;;
17604;SDS011;8921;50.964;6.800;2022-08-01T15:27:26;4.43;;;2.07;;
17604;SDS011;8921;50.964;6.800;2022-08-01T15:29:54;4.10;;;1.93;;
17604;SDS011;8921;50.964;6.800;2022-08-01T15:32:22;4.03;;;1.90;;
17604;SDS011;8921;50.964;6.800;2022-08-01T15:34:51;4.57;;;1.60;;
17604;SDS011;8921;50.964;6.800;2022-08-01T15:37:19;4.73;;;2.10;;
17604;SDS011;8921;50.964;6.800;2022-08-01T15:39:47;5.57;;;2.00;;
17604;SDS011;8921;50.964;6.800;2022-08-01T15:42:16;3.10;;;1.50;;
17604;SDS011;8921;50.964;6.800;2022-08-01T15:44:44;5.67;;;2.20;;
17604;SDS011;8921;50.964;6.800;2022-08-01T15:47:12;3.77;;;2.00;;
17604;SDS011;8921;50.964;6.800;2022-08-01T15:49:40;5.90;;;1.97;;